createdAt,value
2019-04-11T00:02:31.228Z,3.99
2019-04-11T00:05:21.314Z,4.01
2019-04-11T00:08:12.140Z,4.06
2019-04-11T00:11:02.296Z,4.11
2019-04-11T00:13:53.552Z,4.05
2019-04-11T00:16:45.620Z,4.07
2019-04-11T00:19:35.954Z,4.13
2019-04-11T00:22:27.695Z,4.07
2019-04-11T00:25:17.742Z,4.13
2019-04-11T00:28:08.010Z,4.11
2019-04-11T00:31:01.351Z,4.15
2019-04-11T00:33:54.272Z,4.14
2019-04-11T00:36:44.803Z,4.18
2019-04-11T00:39:39.631Z,4.19
2019-04-11T00:42:30.435Z,4.22
2019-04-11T00:45:21.275Z,4.24
2019-04-11T00:48:11.376Z,4.25
2019-04-11T00:51:01.541Z,4.24
2019-04-11T00:53:52.057Z,4.32
2019-04-11T00:56:42.304Z,4.36
2019-04-11T00:59:32.529Z,4.34
2019-04-11T01:02:25.818Z,4.38
2019-04-11T01:05:17.853Z,4.52
2019-04-11T01:08:09.883Z,4.54
2019-04-11T01:11:00.482Z,4.56
2019-04-11T01:13:54.954Z,4.52
2019-04-11T01:16:52.649Z,4.51
2019-04-11T01:19:42.971Z,4.43
2019-04-11T01:22:35.095Z,4.54
2019-04-11T01:25:25.379Z,4.65
2019-04-11T01:28:15.344Z,4.64
2019-04-11T01:31:09.379Z,4.74
2019-04-11T01:34:02.268Z,4.85
2019-04-11T01:36:53.884Z,4.88
2019-04-11T01:39:57.098Z,4.85
2019-04-11T01:42:47.344Z,4.84
2019-04-11T01:45:37.873Z,4.59
2019-04-11T01:48:44.386Z,4.50
2019-04-11T01:51:35.903Z,4.47
2019-04-11T01:54:26.287Z,4.72
2019-04-11T01:57:15.922Z,4.84
2019-04-11T02:00:08.227Z,4.73
2019-04-11T02:02:59.576Z,4.80
2019-04-11T02:05:49.589Z,4.82
2019-04-11T02:08:41.663Z,4.85
2019-04-11T02:11:31.825Z,4.70
2019-04-11T02:14:22.599Z,4.77
2019-04-11T02:17:15.203Z,4.72
2019-04-11T02:20:07.022Z,4.77
2019-04-11T02:23:06.777Z,4.64
2019-04-11T02:26:03.554Z,4.55
2019-04-11T02:28:55.105Z,4.63
2019-04-11T02:31:46.756Z,4.40
2019-04-11T02:34:39.568Z,4.52
2019-04-11T02:37:31.538Z,4.55
2019-04-11T02:40:22.974Z,4.55
2019-04-11T02:43:17.429Z,4.62
2019-04-11T02:46:17.294Z,4.55
2019-04-11T02:49:01.498Z,4.64
2019-04-11T02:51:53.565Z,4.78
2019-04-11T02:54:45.168Z,4.72
2019-04-11T02:57:36.279Z,4.67
2019-04-11T03:00:29.189Z,4.65
2019-04-11T03:03:18.980Z,4.57
2019-04-11T03:06:11.175Z,4.60
2019-04-11T03:09:02.767Z,4.67
2019-04-11T03:11:54.635Z,4.60
2019-04-11T03:15:05.768Z,4.60
2019-04-11T03:17:43.258Z,4.55
2019-04-11T03:20:36.870Z,4.63
2019-04-11T03:23:23.544Z,4.65
2019-04-11T03:26:14.209Z,4.54
2019-04-11T03:29:06.286Z,4.41
2019-04-11T03:32:40.171Z,4.51
2019-04-11T03:38:05.825Z,4.33
2019-04-11T03:40:50.512Z,4.25
2019-04-11T03:43:36.684Z,4.28
2019-04-11T03:46:33.920Z,4.19
2019-04-11T03:49:21.022Z,4.21
2019-04-11T03:52:01.378Z,4.11
2019-04-11T03:54:54.137Z,4.09
2019-04-11T03:57:47.053Z,4.09
2019-04-11T04:00:43.890Z,3.90
2019-04-11T04:03:34.052Z,3.99
2019-04-11T04:06:25.649Z,3.95
2019-04-11T04:09:17.092Z,3.98
2019-04-11T04:12:09.048Z,3.95
2019-04-11T04:15:39.149Z,3.94
2019-04-11T04:18:29.894Z,3.94
2019-04-11T04:21:43.561Z,3.86
2019-04-11T04:24:39.784Z,3.97
2019-04-11T04:27:30.354Z,3.84
2019-04-11T04:30:24.540Z,3.90
2019-04-11T04:33:17.096Z,3.86
2019-04-11T04:36:10.416Z,3.92
2019-04-11T04:39:01.205Z,3.87
2019-04-11T04:42:01.140Z,3.95
2019-04-11T04:44:45.186Z,3.91
2019-04-11T04:47:42.377Z,3.93
2019-04-11T04:50:27.185Z,3.91
2019-04-11T04:53:20.230Z,3.84
2019-04-11T04:56:11.094Z,3.93
2019-04-11T04:59:02.631Z,4.02
2019-04-11T05:01:53.258Z,3.99
2019-04-11T05:04:45.903Z,3.96
2019-04-11T05:07:40.100Z,3.95
2019-04-11T05:10:32.599Z,3.91
2019-04-11T05:13:23.936Z,3.85
2019-04-11T05:16:17.602Z,3.89
2019-04-11T05:19:04.922Z,3.83
2019-04-11T05:21:57.574Z,3.86
2019-04-11T05:24:47.504Z,3.94
2019-04-11T05:27:37.850Z,4.00
2019-04-11T05:30:27.530Z,3.95
2019-04-11T05:33:18.739Z,3.93
2019-04-11T05:36:08.574Z,4.04
2019-04-11T05:38:58.364Z,4.13
2019-04-11T05:41:51.423Z,4.13
2019-04-11T05:44:43.257Z,4.13
2019-04-11T05:47:35.334Z,4.19
2019-04-11T05:50:36.167Z,4.17
2019-04-11T05:53:27.920Z,4.31
2019-04-11T05:56:22.264Z,4.33
2019-04-11T05:59:18.889Z,4.38
2019-04-11T06:02:21.507Z,4.49
2019-04-11T06:05:31.238Z,4.44
2019-04-11T06:08:24.133Z,4.56
2019-04-11T06:11:24.184Z,4.60
2019-04-11T06:14:22.895Z,4.73
2019-04-11T06:17:15.878Z,4.96
2019-04-11T06:20:27.171Z,5.14
2019-04-11T06:23:56.792Z,5.59
2019-04-11T06:27:11.315Z,5.99
2019-04-11T06:30:30.491Z,6.36
2019-04-11T06:33:27.093Z,6.32
2019-04-11T06:36:43.307Z,7.22
2019-04-11T06:39:37.922Z,6.83
2019-04-11T06:42:37.257Z,6.73
2019-04-11T06:45:58.623Z,7.20
2019-04-11T06:49:00.276Z,7.76
2019-04-11T06:51:56.746Z,8.68
2019-04-11T06:55:10.855Z,9.19
2019-04-11T06:58:06.689Z,7.87
2019-04-11T07:01:01.936Z,7.56
2019-04-11T07:03:55.337Z,6.70
2019-04-11T07:06:48.176Z,6.15
2019-04-11T07:09:49.099Z,6.52
2019-04-11T07:13:00.658Z,6.36
2019-04-11T07:15:54.861Z,6.43
2019-04-11T07:19:02.874Z,6.16
2019-04-11T07:21:53.463Z,6.43
2019-04-11T07:25:02.291Z,6.42
2019-04-11T07:28:10.034Z,6.60
2019-04-11T07:31:19.258Z,6.48
2019-04-11T07:34:39.652Z,6.53
2019-04-11T07:37:42.851Z,6.94
2019-04-11T07:40:51.978Z,8.30
2019-04-11T07:43:43.162Z,8.02
2019-04-11T07:46:49.499Z,7.91
2019-04-11T07:49:40.882Z,7.98
2019-04-11T07:52:34.554Z,8.76
2019-04-11T07:55:25.895Z,9.32
2019-04-11T07:58:24.010Z,8.59
2019-04-11T08:01:38.361Z,9.06
2019-04-11T08:04:47.272Z,8.90
2019-04-11T08:07:55.272Z,9.23
2019-04-11T08:10:53.026Z,9.23
2019-04-11T08:14:02.248Z,8.76
2019-04-11T08:17:28.095Z,9.12
2019-04-11T08:20:29.086Z,9.02
2019-04-11T08:23:19.764Z,9.40
2019-04-11T08:26:39.511Z,9.40
2019-04-11T08:29:30.553Z,10.40
2019-04-11T08:32:40.129Z,10.26
2019-04-11T08:35:53.474Z,10.37
2019-04-11T08:38:46.473Z,10.27
2019-04-11T08:41:56.982Z,10.34
2019-04-11T08:44:48.126Z,11.27
2019-04-11T08:47:52.676Z,11.46
2019-04-11T08:50:44.923Z,10.70
2019-04-11T08:53:55.020Z,10.17
2019-04-11T08:56:47.366Z,10.95
2019-04-11T09:00:14.057Z,10.45
2019-04-11T09:03:18.363Z,9.80
2019-04-11T09:06:12.405Z,9.87
2019-04-11T09:09:20.968Z,10.73
2019-04-11T09:12:14.287Z,11.34
2019-04-11T09:15:37.057Z,10.39
2019-04-11T09:18:28.062Z,9.65
2019-04-11T09:21:36.151Z,10.11
2019-04-11T09:24:41.221Z,9.63
2019-04-11T09:27:55.497Z,10.24
2019-04-11T09:31:12.181Z,9.89
2019-04-11T09:34:21.777Z,11.18
2019-04-11T09:37:25.359Z,10.52
2019-04-11T09:40:37.632Z,11.25
2019-04-11T09:43:31.766Z,10.28
2019-04-11T09:46:34.485Z,9.34
2019-04-11T09:49:31.072Z,9.23
2019-04-11T09:52:29.020Z,8.65
2019-04-11T09:55:39.588Z,8.85
2019-04-11T09:58:29.599Z,8.55
2019-04-11T10:01:40.791Z,8.66
2019-04-11T10:04:33.925Z,8.44
2019-04-11T10:07:33.529Z,8.51
2019-04-11T10:10:46.552Z,8.78
2019-04-11T10:13:55.913Z,8.69
2019-04-11T10:17:04.552Z,8.95
2019-04-11T10:20:00.864Z,9.00
2019-04-11T10:23:12.946Z,9.11
2019-04-11T10:26:04.454Z,8.92
2019-04-11T10:29:13.441Z,9.02
2019-04-11T10:32:03.463Z,8.55
2019-04-11T10:35:30.362Z,9.02
2019-04-11T10:38:20.522Z,9.08
2019-04-11T10:41:32.664Z,9.41
2019-04-11T10:44:42.304Z,9.32
2019-04-11T10:47:33.724Z,10.08
2019-04-11T10:50:50.683Z,10.26
2019-04-11T10:53:43.769Z,10.40
2019-04-11T10:56:45.924Z,10.75
2019-04-11T10:59:36.435Z,10.90
2019-04-11T11:03:02.008Z,10.20
2019-04-11T11:05:55.506Z,10.62
2019-04-11T11:08:57.563Z,10.11
2019-04-11T11:11:59.359Z,9.39
2019-04-11T11:15:14.000Z,9.41
2019-04-11T11:18:53.989Z,9.46
2019-04-11T11:21:30.010Z,9.37
2019-04-11T11:24:44.207Z,9.75
2019-04-11T11:27:36.181Z,9.74
2019-04-11T11:30:47.301Z,10.14
2019-04-11T11:33:38.572Z,9.78
2019-04-11T11:37:07.055Z,9.74
2019-04-11T11:40:16.576Z,9.55
2019-04-11T11:43:30.986Z,9.49
2019-04-11T11:46:38.308Z,9.47
2019-04-11T11:49:42.425Z,9.77
2019-04-11T11:52:49.542Z,9.36
2019-04-11T11:55:41.162Z,9.19
2019-04-11T11:58:56.164Z,9.01
2019-04-11T12:01:50.949Z,8.73
2019-04-11T12:04:56.073Z,8.36
2019-04-11T12:08:00.411Z,8.50
2019-04-11T12:11:04.270Z,8.54
2019-04-11T12:14:18.604Z,8.56
2019-04-11T12:17:23.148Z,8.49
2019-04-11T12:20:20.833Z,8.89
2019-04-11T12:23:29.515Z,9.08
2019-04-11T12:26:20.295Z,9.30
2019-04-11T12:29:30.618Z,9.02
2019-04-11T12:32:25.332Z,8.94
2019-04-11T12:35:34.130Z,8.94
2019-04-11T12:38:54.668Z,8.70
2019-04-11T12:42:15.387Z,8.98
2019-04-11T12:45:23.981Z,9.11
2019-04-11T12:48:13.788Z,8.76
2019-04-11T12:51:34.272Z,8.57
2019-04-11T12:54:28.912Z,8.58
2019-04-11T12:57:37.620Z,8.71
2019-04-11T13:00:50.518Z,9.01
2019-04-11T13:03:58.279Z,9.03
2019-04-11T13:07:22.164Z,9.15
2019-04-11T13:10:31.875Z,9.11
2019-04-11T13:13:30.660Z,9.23
2019-04-11T13:16:21.551Z,9.12
2019-04-11T13:19:28.737Z,8.91
2019-04-11T13:22:22.341Z,8.97
2019-04-11T13:25:35.594Z,8.88
2019-04-11T13:28:29.093Z,8.99
2019-04-11T13:31:36.651Z,9.03
2019-04-11T13:34:26.805Z,9.32
2019-04-11T13:37:30.899Z,8.80
2019-04-11T13:40:36.471Z,8.81
2019-04-11T13:43:31.833Z,8.97
2019-04-11T13:46:47.142Z,8.65
2019-04-11T13:49:43.146Z,8.56
2019-04-11T13:52:54.869Z,8.53
2019-04-11T13:55:44.749Z,8.58
2019-04-11T13:58:55.395Z,8.67
2019-04-11T14:01:46.452Z,8.60
2019-04-11T14:04:43.025Z,8.42
2019-04-11T14:07:34.150Z,8.55
2019-04-11T14:10:25.327Z,8.51
2019-04-11T14:13:17.265Z,8.74
2019-04-11T14:16:10.965Z,8.61
2019-04-11T14:19:21.051Z,8.47
2019-04-11T14:22:13.745Z,8.57
2019-04-11T14:25:33.953Z,8.51
2019-04-11T14:28:24.587Z,8.37
2019-04-11T14:31:37.344Z,8.16
2019-04-11T14:34:45.706Z,8.06
2019-04-11T14:37:51.515Z,8.12
2019-04-11T14:41:09.857Z,7.97
2019-04-11T14:44:02.952Z,7.55
2019-04-11T14:47:14.210Z,7.76
2019-04-11T14:50:04.394Z,7.97
2019-04-11T14:53:25.095Z,7.94
2019-04-11T14:56:16.935Z,7.91
2019-04-11T14:59:15.664Z,7.90
2019-04-11T15:02:13.140Z,7.75
2019-04-11T15:05:13.661Z,7.70
2019-04-11T15:08:01.148Z,7.83
2019-04-11T15:11:10.066Z,7.91
2019-04-11T15:14:09.358Z,7.84
2019-04-11T15:17:30.537Z,7.74
2019-04-11T15:20:55.484Z,7.82
2019-04-11T15:23:45.422Z,7.82
2019-04-11T15:26:52.857Z,7.82
2019-04-11T15:29:45.935Z,7.84
2019-04-11T15:32:59.933Z,7.66
2019-04-11T15:35:50.545Z,7.64
2019-04-11T15:39:02.214Z,7.60
2019-04-11T15:42:01.437Z,7.57
2019-04-11T15:45:04.458Z,7.55
2019-04-11T15:48:10.605Z,7.56
2019-04-11T15:51:35.114Z,7.51
2019-04-11T15:54:44.076Z,7.57
2019-04-11T15:57:46.639Z,7.50
2019-04-11T16:01:04.756Z,7.39
2019-04-11T16:04:02.412Z,7.32
2019-04-11T16:07:11.245Z,7.27
2019-04-11T16:10:00.826Z,7.24
2019-04-11T16:12:57.315Z,7.26
2019-04-11T16:15:50.458Z,7.22
2019-04-11T16:18:59.478Z,7.28
2019-04-11T16:22:14.520Z,7.21
2019-04-11T16:25:08.695Z,7.22
2019-04-11T16:28:16.269Z,7.16
2019-04-11T16:31:09.474Z,7.11
2019-04-11T16:34:16.107Z,7.17
2019-04-11T16:37:08.049Z,7.07
2019-04-11T16:40:16.493Z,7.02
2019-04-11T16:43:09.316Z,7.08
2019-04-11T16:46:19.881Z,7.02
2019-04-11T16:49:10.479Z,7.04
2019-04-11T16:52:01.655Z,7.03
2019-04-11T16:54:52.455Z,7.01
2019-04-11T16:57:44.335Z,7.04
2019-04-11T17:00:35.307Z,7.03
2019-04-11T17:03:25.689Z,7.03
2019-04-11T17:06:33.244Z,6.86
2019-04-11T17:09:34.103Z,6.79
2019-04-11T17:12:26.680Z,6.87
2019-04-11T17:15:17.207Z,6.91
2019-04-11T17:18:09.540Z,6.95
2019-04-11T17:20:59.741Z,6.90
2019-04-11T17:23:49.773Z,6.66
2019-04-11T17:26:39.921Z,6.70
2019-04-11T17:29:31.338Z,6.70
2019-04-11T17:32:23.617Z,6.65
2019-04-11T17:35:15.356Z,6.58
2019-04-11T17:38:08.094Z,6.71
2019-04-11T17:40:59.559Z,6.65
2019-04-11T17:43:51.605Z,6.59
2019-04-11T17:46:45.064Z,6.67
2019-04-11T17:49:36.976Z,6.67
2019-04-11T17:52:29.107Z,6.46
2019-04-11T17:55:18.792Z,6.43
2019-04-11T17:58:09.066Z,6.52
2019-04-11T18:01:05.181Z,6.55
2019-04-11T18:03:53.242Z,6.32
2019-04-11T18:06:46.999Z,6.36
2019-04-11T18:09:35.887Z,6.40
2019-04-11T18:12:28.157Z,6.42
2019-04-11T18:15:20.213Z,6.29
2019-04-11T18:18:12.820Z,6.23
2019-04-11T18:21:06.995Z,6.31
2019-04-11T18:23:55.272Z,6.29
2019-04-11T18:26:45.498Z,6.38
2019-04-11T18:29:38.835Z,6.30
2019-04-11T18:32:28.540Z,6.28
2019-04-11T18:35:19.784Z,6.30
2019-04-11T18:38:09.925Z,6.20
2019-04-11T18:41:02.321Z,6.08
2019-04-11T18:43:53.467Z,6.03
2019-04-11T18:46:44.011Z,6.00
2019-04-11T18:49:36.902Z,5.94
2019-04-11T18:52:29.005Z,5.94
2019-04-11T18:55:23.504Z,5.74
2019-04-11T18:58:14.402Z,5.77
2019-04-11T19:01:09.063Z,5.78
2019-04-11T19:03:59.532Z,5.70
2019-04-11T19:06:52.415Z,5.66
2019-04-11T19:09:43.876Z,5.56
2019-04-11T19:12:36.672Z,5.68
2019-04-11T19:15:26.786Z,5.70
2019-04-11T19:18:17.308Z,5.72
2019-04-11T19:21:11.860Z,5.74
2019-04-11T19:24:02.054Z,5.65
2019-04-11T19:26:53.415Z,5.64
2019-04-11T19:29:44.086Z,5.58
2019-04-11T19:32:35.504Z,5.54
2019-04-11T19:35:27.264Z,5.59
2019-04-11T19:38:43.405Z,5.49
2019-04-11T19:41:33.703Z,5.48
2019-04-11T19:44:23.624Z,5.54
2019-04-11T19:47:13.846Z,5.50
2019-04-11T19:50:06.936Z,5.48
2019-04-11T19:52:56.995Z,5.37
2019-04-11T19:56:00.458Z,5.41
2019-04-11T19:58:51.592Z,5.40
2019-04-11T20:01:43.173Z,5.36
2019-04-11T20:04:35.020Z,5.31
2019-04-11T20:07:25.146Z,5.28
2019-04-11T20:10:16.119Z,5.26
2019-04-11T20:13:06.855Z,5.31
2019-04-11T20:15:57.653Z,5.28
2019-04-11T20:18:51.388Z,5.16
2019-04-11T20:21:39.887Z,5.14
2019-04-11T20:24:33.107Z,5.05
2019-04-11T20:27:22.673Z,5.08
2019-04-11T20:30:13.513Z,4.92
2019-04-11T20:33:08.465Z,5.00
2019-04-11T20:35:59.537Z,5.01
2019-04-11T20:38:49.937Z,5.04
2019-04-11T20:41:39.766Z,4.93
2019-04-11T20:44:30.731Z,4.96
2019-04-11T20:47:20.630Z,4.92
2019-04-11T20:50:10.600Z,4.99
2019-04-11T20:53:11.970Z,4.95
2019-04-11T20:55:54.154Z,4.84
2019-04-11T20:58:44.494Z,4.87
2019-04-11T21:01:35.209Z,4.87
2019-04-11T21:04:27.241Z,4.72
2019-04-11T21:07:18.413Z,4.91
2019-04-11T21:10:10.061Z,4.82
2019-04-11T21:13:00.044Z,4.88
2019-04-11T21:15:54.171Z,4.82
2019-04-11T21:18:45.586Z,4.86
2019-04-11T21:21:35.449Z,4.77
2019-04-11T21:24:25.657Z,4.75
2019-04-11T21:27:15.819Z,4.81
2019-04-11T21:30:05.856Z,4.79
2019-04-11T21:33:01.159Z,4.74
2019-04-11T21:35:50.501Z,4.74
2019-04-11T21:38:40.550Z,4.60
2019-04-11T21:41:30.781Z,4.67
2019-04-11T21:44:21.088Z,4.50
2019-04-11T21:47:13.343Z,4.61
2019-04-11T21:50:09.142Z,4.62
2019-04-11T21:52:57.896Z,4.52
2019-04-11T21:55:48.373Z,4.61
2019-04-11T21:58:39.383Z,4.63
2019-04-11T22:01:29.513Z,4.59
2019-04-11T22:04:19.388Z,4.54
2019-04-11T22:07:09.576Z,4.63
2019-04-11T22:10:00.618Z,4.64
2019-04-11T22:12:49.971Z,4.57
2019-04-11T22:15:42.453Z,4.57
2019-04-11T22:18:32.902Z,4.53
2019-04-11T22:21:22.306Z,4.55
2019-04-11T22:24:12.477Z,4.56
2019-04-11T22:27:02.222Z,4.53
2019-04-11T22:29:54.973Z,4.54
2019-04-11T22:32:46.876Z,4.49
2019-04-11T22:35:39.186Z,4.46
2019-04-11T22:38:31.060Z,4.35
2019-04-11T22:41:20.365Z,4.48
2019-04-11T22:44:10.600Z,4.44
2019-04-11T22:47:00.810Z,4.38
2019-04-11T22:49:50.758Z,4.38
2019-04-11T22:52:42.323Z,4.30
2019-04-11T22:55:32.526Z,4.34
2019-04-11T22:58:22.483Z,4.24
2019-04-11T23:01:16.584Z,4.33
2019-04-11T23:04:05.940Z,4.22
2019-04-11T23:06:55.658Z,4.27
2019-04-11T23:09:48.767Z,4.32
2019-04-11T23:12:37.130Z,4.45
2019-04-11T23:15:26.766Z,4.41
2019-04-11T23:18:18.735Z,4.30
2019-04-11T23:21:09.284Z,4.33
2019-04-11T23:24:11.799Z,4.37
2019-04-11T23:26:56.701Z,4.29
2019-04-11T23:29:48.550Z,4.33
2019-04-11T23:32:38.195Z,4.32
2019-04-11T23:35:29.086Z,4.32
2019-04-11T23:38:23.611Z,4.27
2019-04-11T23:41:11.501Z,4.27
2019-04-11T23:44:01.899Z,4.18
2019-04-11T23:46:52.717Z,4.16
2019-04-11T23:49:43.677Z,4.22
2019-04-11T23:52:33.158Z,4.26
2019-04-11T23:55:25.174Z,4.20
2019-04-11T23:58:16.431Z,3.99
